createdAt,value
2023-03-11T00:03:36.334Z,31.30
2023-03-11T00:08:38.444Z,34.17
2023-03-11T00:13:41.577Z,37.25
2023-03-11T00:18:43.845Z,35.70
2023-03-11T00:23:46.728Z,32.00
2023-03-11T00:28:49.682Z,32.95
2023-03-11T00:33:51.901Z,31.67
2023-03-11T00:38:54.094Z,37.67
2023-03-11T00:43:56.291Z,31.63
2023-03-11T00:48:58.688Z,27.05
2023-03-11T00:54:01.568Z,29.30
2023-03-11T00:59:05.448Z,33.15
2023-03-11T01:04:07.795Z,37.28
2023-03-11T01:09:09.943Z,35.35
2023-03-11T01:14:12.074Z,39.42
2023-03-11T01:19:14.287Z,39.17
2023-03-11T01:24:16.518Z,43.03
2023-03-11T01:29:18.723Z,35.58
2023-03-11T01:34:20.871Z,29.67
2023-03-11T01:39:23.073Z,32.78
2023-03-11T01:44:25.220Z,38.60
2023-03-11T01:49:28.306Z,42.20
2023-03-11T01:54:32.319Z,41.30
2023-03-11T01:59:37.614Z,38.85
2023-03-11T02:04:40.855Z,35.88
2023-03-11T02:09:43.122Z,38.65
2023-03-11T02:14:48.741Z,34.95
2023-03-11T02:20:12.538Z,35.65
2023-03-11T02:25:48.853Z,37.13
2023-03-11T02:30:52.326Z,36.83
2023-03-11T02:35:55.287Z,35.60
2023-03-11T02:41:01.553Z,37.88
2023-03-11T02:46:05.614Z,34.67
2023-03-11T02:51:08.232Z,33.05
2023-03-11T02:56:11.461Z,35.25
2023-03-11T03:01:13.707Z,34.33
2023-03-11T03:06:19.693Z,42.33
2023-03-11T03:11:24.054Z,35.03
2023-03-11T03:16:26.332Z,32.50
2023-03-11T03:21:29.651Z,36.17
2023-03-11T03:26:32.266Z,32.78
2023-03-11T03:31:34.903Z,36.28
2023-03-11T03:36:37.956Z,35.35
2023-03-11T03:41:40.694Z,37.05
2023-03-11T03:46:43.885Z,38.80
2023-03-11T03:51:46.239Z,33.22
2023-03-11T03:56:57.837Z,36.17
2023-03-11T04:02:00.519Z,40.08
2023-03-11T04:07:06.001Z,31.00
2023-03-11T04:12:13.412Z,37.15
2023-03-11T04:17:18.004Z,31.50
2023-03-11T04:22:20.423Z,32.60
2023-03-11T04:27:22.761Z,32.55
2023-03-11T04:32:25.662Z,32.13
2023-03-11T04:37:28.655Z,36.20
2023-03-11T04:42:31.431Z,34.97
2023-03-11T04:47:33.732Z,36.22
2023-03-11T04:52:36.581Z,39.17
2023-03-11T04:57:38.849Z,38.47
2023-03-11T05:02:41.726Z,33.25
2023-03-11T05:07:44.142Z,38.83
2023-03-11T05:12:48.221Z,48.13
2023-03-11T05:17:50.435Z,40.40
2023-03-11T05:22:52.750Z,33.05
2023-03-11T05:27:54.911Z,28.45
2023-03-11T05:32:57.248Z,28.90
2023-03-11T05:38:00.712Z,26.95
2023-03-11T05:43:05.033Z,26.13
2023-03-11T05:48:11.959Z,24.73
2023-03-11T05:53:14.218Z,26.33
2023-03-11T05:58:16.509Z,24.88
2023-03-11T06:03:18.686Z,22.95
2023-03-11T06:08:22.339Z,23.00
2023-03-11T06:13:24.811Z,26.00
2023-03-11T06:18:28.748Z,33.35
2023-03-11T06:23:31.453Z,45.53
2023-03-11T06:28:34.883Z,57.80
2023-03-11T06:33:37.639Z,47.80
2023-03-11T06:38:40.084Z,52.63
2023-03-11T06:43:42.587Z,45.63
2023-03-11T06:48:46.103Z,37.10
2023-03-11T06:53:52.070Z,36.10
2023-03-11T06:58:55.927Z,32.15
2023-03-11T07:04:00.741Z,28.17
2023-03-11T07:09:03.687Z,29.27
2023-03-11T07:14:08.300Z,27.85
2023-03-11T07:19:14.369Z,25.38
2023-03-11T07:24:16.806Z,25.55
2023-03-11T07:29:20.370Z,23.55
2023-03-11T07:34:22.553Z,25.73
2023-03-11T07:39:24.747Z,27.20
2023-03-11T07:44:26.856Z,27.55
2023-03-11T07:49:29.027Z,28.27
2023-03-11T07:54:31.208Z,36.97
2023-03-11T07:59:33.345Z,39.05
2023-03-11T08:04:35.958Z,35.38
2023-03-11T08:09:38.263Z,37.17
2023-03-11T08:14:40.433Z,38.47
2023-03-11T08:19:42.584Z,36.63
2023-03-11T08:24:44.708Z,36.38
2023-03-11T08:29:46.950Z,36.22
2023-03-11T08:34:49.087Z,41.42
2023-03-11T08:39:51.536Z,45.83
2023-03-11T08:44:53.622Z,45.10
2023-03-11T08:49:55.749Z,46.75
2023-03-11T08:54:57.943Z,50.70
2023-03-11T09:00:00.169Z,59.58
2023-03-11T09:05:02.460Z,57.45
2023-03-11T09:10:05.129Z,61.55
2023-03-11T09:15:08.179Z,57.45
2023-03-11T09:20:12.563Z,56.42
2023-03-11T09:25:15.186Z,62.08
2023-03-11T09:30:17.569Z,61.80
2023-03-11T09:35:19.914Z,58.50
2023-03-11T09:40:23.549Z,51.20
2023-03-11T09:45:28.218Z,50.75
2023-03-11T09:50:31.833Z,52.55
2023-03-11T09:55:34.041Z,48.65
2023-03-11T10:00:36.582Z,49.13
2023-03-11T10:05:39.564Z,46.78
2023-03-11T10:10:50.572Z,48.03
2023-03-11T10:16:04.992Z,51.88
2023-03-11T10:21:16.902Z,51.85
2023-03-11T10:26:37.339Z,53.00
2023-03-11T10:31:39.554Z,49.58
2023-03-11T10:36:49.634Z,47.28
2023-03-11T10:41:56.086Z,52.58
2023-03-11T10:52:03.617Z,50.17
2023-03-11T10:57:26.297Z,52.30
2023-03-11T11:02:38.769Z,54.63
2023-03-11T11:07:41.460Z,46.15
2023-03-11T11:12:54.455Z,48.35
2023-03-11T11:18:04.386Z,40.47
2023-03-11T11:23:06.754Z,48.85
2023-03-11T11:28:19.684Z,49.20
2023-03-11T11:33:27.973Z,46.95
2023-03-11T11:38:31.429Z,38.92
2023-03-11T11:43:41.467Z,45.17
2023-03-11T11:48:52.487Z,43.70
2023-03-11T11:54:03.253Z,41.97
2023-03-11T11:59:09.199Z,40.13
2023-03-11T12:04:27.546Z,37.83
2023-03-11T12:09:48.268Z,46.60
2023-03-11T12:14:58.195Z,50.85
2023-03-11T12:20:07.015Z,43.80
2023-03-11T12:25:22.325Z,43.72
2023-03-11T12:30:27.578Z,38.13
2023-03-11T12:35:31.334Z,41.55
2023-03-11T12:40:56.267Z,38.22
2023-03-11T12:46:01.964Z,33.05
2023-03-11T12:51:06.002Z,36.20
2023-03-11T12:56:20.027Z,32.28
2023-03-11T13:01:30.280Z,36.00
2023-03-11T13:06:32.399Z,27.30
2023-03-11T13:11:34.505Z,29.02
2023-03-11T13:16:37.656Z,23.98
2023-03-11T13:21:39.881Z,22.98
2023-03-11T13:27:00.844Z,29.15
2023-03-11T13:32:23.871Z,32.58
2023-03-11T13:37:26.062Z,36.70
2023-03-11T13:42:47.032Z,25.65
2023-03-11T13:47:49.843Z,24.60
2023-03-11T13:52:55.611Z,32.25
2023-03-11T13:57:57.851Z,25.90
2023-03-11T14:03:02.769Z,29.85
2023-03-11T14:08:27.107Z,33.35
2023-03-11T14:13:30.316Z,35.13
2023-03-11T14:18:37.184Z,31.02
2023-03-11T14:23:46.819Z,28.80
2023-03-11T14:28:53.399Z,23.75
2023-03-11T14:34:13.005Z,27.33
2023-03-11T14:39:34.802Z,31.60
2023-03-11T14:44:39.729Z,26.33
2023-03-11T14:49:42.235Z,26.98
2023-03-11T14:54:45.170Z,25.00
2023-03-11T14:59:49.480Z,21.88
2023-03-11T15:04:52.161Z,22.00
2023-03-11T15:09:54.601Z,26.23
2023-03-11T15:14:56.697Z,24.55
2023-03-11T15:19:59.211Z,22.33
2023-03-11T15:25:02.534Z,23.30
2023-03-11T15:30:16.468Z,23.80
2023-03-11T15:35:20.457Z,23.05
2023-03-11T15:40:35.260Z,20.50
2023-03-11T15:45:44.694Z,19.17
2023-03-11T15:50:53.395Z,21.40
2023-03-11T15:56:06.531Z,26.33
2023-03-11T16:01:09.882Z,17.73
2023-03-11T16:06:11.985Z,13.00
2023-03-11T16:11:14.350Z,17.65
2023-03-11T16:16:17.382Z,18.50
2023-03-11T16:21:21.472Z,18.45
2023-03-11T16:26:23.665Z,21.70
2023-03-11T16:31:25.985Z,22.63
2023-03-11T16:36:28.253Z,21.05
2023-03-11T16:41:34.517Z,19.67
2023-03-11T16:46:36.777Z,18.30
2023-03-11T16:51:39.133Z,17.95
2023-03-11T16:56:42.023Z,21.17
2023-03-11T17:01:44.181Z,18.48
2023-03-11T17:06:46.531Z,18.95
2023-03-11T17:11:50.197Z,17.67
2023-03-11T17:16:52.419Z,16.05
2023-03-11T17:21:54.597Z,15.23
2023-03-11T17:26:56.779Z,15.43
2023-03-11T17:31:58.879Z,17.38
2023-03-11T17:37:02.433Z,13.18
2023-03-11T17:42:05.708Z,13.93
2023-03-11T17:47:08.105Z,19.00
2023-03-11T17:52:10.307Z,13.10
2023-03-11T17:57:12.854Z,11.25
2023-03-11T18:02:15.049Z,12.65
2023-03-11T18:07:17.260Z,14.05
2023-03-11T18:12:20.314Z,10.40
2023-03-11T18:17:22.503Z,11.18
2023-03-11T18:22:24.587Z,9.15
2023-03-11T18:27:26.869Z,9.98
2023-03-11T18:32:29.059Z,9.85
2023-03-11T18:37:32.477Z,10.18
2023-03-11T18:42:35.504Z,10.05
2023-03-11T18:47:39.007Z,10.07
2023-03-11T18:52:41.229Z,6.10
2023-03-11T18:57:43.674Z,6.20
2023-03-11T19:02:46.259Z,6.85
2023-03-11T19:07:48.399Z,4.82
2023-03-11T19:12:51.350Z,6.55
2023-03-11T19:18:05.966Z,7.53
2023-03-11T19:23:09.497Z,7.93
2023-03-11T19:28:11.565Z,7.45
2023-03-11T19:33:13.748Z,8.30
2023-03-11T19:38:15.891Z,10.40
2023-03-11T19:43:19.548Z,12.07
2023-03-11T19:48:21.770Z,10.27
2023-03-11T19:53:23.986Z,8.20
2023-03-11T19:58:29.917Z,9.43
2023-03-11T20:03:33.867Z,9.32
2023-03-11T20:08:37.592Z,7.50
2023-03-11T20:13:43.203Z,6.88
2023-03-11T20:18:46.258Z,7.25
2023-03-11T20:23:49.292Z,5.05
2023-03-11T20:28:55.100Z,5.32
2023-03-11T20:33:58.066Z,5.40
2023-03-11T20:39:00.283Z,7.63
2023-03-11T20:44:02.524Z,6.82
2023-03-11T20:49:04.744Z,5.97
2023-03-11T20:54:06.907Z,5.57
2023-03-11T20:59:10.866Z,5.78
2023-03-11T21:04:15.183Z,6.05
2023-03-11T21:09:19.335Z,5.45
2023-03-11T21:14:21.541Z,4.80
2023-03-11T21:19:23.844Z,6.32
2023-03-11T21:24:26.049Z,4.63
2023-03-11T21:29:30.913Z,7.57
2023-03-11T21:34:33.230Z,5.40
2023-03-11T21:39:35.516Z,7.63
2023-03-11T21:44:37.811Z,5.80
2023-03-11T21:49:40.127Z,4.68
2023-03-11T21:54:42.426Z,6.03
2023-03-11T21:59:44.853Z,7.18
2023-03-11T22:04:47.124Z,5.70
2023-03-11T22:09:49.476Z,8.68
2023-03-11T22:14:51.757Z,5.30
2023-03-11T22:19:54.349Z,5.55
2023-03-11T22:24:56.546Z,4.30
2023-03-11T22:29:58.703Z,6.00
2023-03-11T22:35:00.966Z,5.85
2023-03-11T22:40:04.817Z,4.88
2023-03-11T22:45:07.787Z,7.75
2023-03-11T22:50:10.495Z,6.25
2023-03-11T22:55:12.668Z,5.45
2023-03-11T23:00:21.048Z,7.47
2023-03-11T23:05:23.920Z,6.95
2023-03-11T23:10:26.048Z,6.97
2023-03-11T23:15:28.152Z,6.70
2023-03-11T23:20:30.300Z,6.72
2023-03-11T23:25:32.905Z,8.02
2023-03-11T23:30:35.304Z,8.65
2023-03-11T23:35:40.489Z,7.72
2023-03-11T23:40:42.629Z,9.07
2023-03-11T23:45:44.825Z,9.57
2023-03-11T23:50:47.814Z,9.23
2023-03-11T23:55:50.997Z,8.05
